Air Navigation Services of Czech Republic  
Last data update:  10.05.2021 03:49:27 UTC česká verze
   METEO Page displayed:  10.05.2021 03:51:10 UTC  
vysvětlivky
METAR EDDB 100320Z 12006KT CAVOK 14/06 Q1006 NOSIG=
METAR EDDC 100320Z 16015KT CAVOK 15/04 Q1007=
METAR EDDE 100320Z 19009KT CAVOK 15/07 Q1005=
METAR EDDF 100320Z 26004KT 210V290 CAVOK 15/10 Q1003 NOSIG=
METAR EDDM 100320Z 09003KT CAVOK 08/06 Q1008 NOSIG=
METAR EDDN 100320Z 09007KT CAVOK 13/06 Q1007=
METAR EDDP 100320Z 14012KT CAVOK 13/08 Q1006 NOSIG=
METAR EDQM NIL
METAR EPBY 100330Z 16008KT CAVOK 11/06 Q1012=
METAR EPGD 100330Z 15008KT CAVOK 11/06 Q1012=
METAR EPKK 100330Z 05005KT CAVOK 06/03 Q1015=
METAR EPKT 100330Z 12008KT CAVOK 08/03 Q1014=
METAR EPLL 100330Z 11005KT 080V150 CAVOK 09/05 Q1014=
METAR EPPO 100330Z 13009KT CAVOK 11/05 Q1011=
METAR EPRZ 100330Z 09008KT CAVOK 08/02 Q1018=
METAR EPWA 100330Z 13007KT CAVOK 08/04 Q1016 NOSIG=
METAR EPWR 100330Z 12004KT CAVOK 09/04 Q1011=
METAR LHBP 100330Z 10006KT CAVOK 08/03 Q1019 NOSIG=
METAR LHSM 100315Z AUTO 11005KT CAVOK 10/03 Q1016=
METAR LKBC 100330Z AUTO 10005KT CAVOK 10/05 Q1010=
METAR LKCV 100330Z 14012KT CAVOK 13/01 Q1010 NOSIG RMK BLU BLU=
METAR LKKB 100330Z 07008KT CAVOK 11/04 Q1009 RMK BLU=
METAR LKKU NIL
METAR LKKV 100300Z VRB02KT CAVOK 08/05 Q1009 RMK REG QNH 1007=
METAR LKLN 100330Z AUTO VRB02KT CAVOK 11/08 Q1009=
METAR LKMT 100330Z 20006KT CAVOK 14/M00 Q1013 NOSIG RMK REG QNH 1007=
METAR LKNA 100330Z 12012KT CAVOK 11/M01 Q1012 RMK BLU=
METAR LKPD 100330Z 07007KT CAVOK 14/01 Q1010 RMK BLACK=
METAR LKPJ 100330Z AUTO 15007KT CAVOK 10/02 Q1013=
METAR LKPR 100330Z 00000KT CAVOK 07/05 Q1010 NOSIG RMK REG QNH 1007=
METAR LKTB 100330Z 11009KT CAVOK 13/M00 Q1013 NOSIG RMK REG QNH 1007=
METAR LKVO NIL
METAR LOWI 100320Z AUTO VRB06KT 9999 +DZ NSC 18/06 Q1013=
METAR LOWL 100320Z VRB01KT CAVOK 09/08 Q1010 NOSIG=
METAR LOWS 100320Z AUTO 16011KT 9999 NSC 15/04 Q1009=
METAR LOWW 100320Z 15017KT CAVOK 12/02 Q1012 NOSIG=
METAR LZIB 100330Z 05008KT CAVOK 10/03 Q1015=
METAR LZKZ 100330Z VRB01KT CAVOK 05/02 Q1020=
METAR LZMC 100300Z 15012G24KT CAVOK 13/01 Q1014=
METAR LZPP 100330Z AUTO 12016KT 9999 NCD 14/02 Q1015=
METAR LZSL 100300Z 10002KT CAVOK 06/02 Q1020=
METAR LZTT 100330Z 19007KT CAVOK 09/M01 Q1019=
METAR LZZI 100330Z VRB02KT CAVOK 04/03 Q1017=